CDT,Max TemperatureF,Mean TemperatureF,Min TemperatureF,Max Dew PointF,MeanDew PointF,Min DewpointF,Max Humidity, Mean Humidity, Min Humidity, Max Sea Level PressureIn, Mean Sea Level PressureIn, Min Sea Level PressureIn, Max VisibilityMiles, Mean VisibilityMiles, Min VisibilityMiles, Max Wind SpeedMPH, Mean Wind SpeedMPH, Max Gust SpeedMPH,PrecipitationIn, CloudCover, Events, WindDirDegrees
2012-10-1,75,67,59,73,65,59,100,99,88,29.75,29.62,29.54,10,5,0,14,6,20,1.16,8,Fog-Rain-Thunderstorm,125
2012-10-2,68,60,52,59,56,53,100,94,59,30.07,29.82,29.69,10,5,1,10,4,,0.01,7,Rain,329
2012-10-3,74,61,48,60,54,48,100,90,52,30.25,30.14,30.07,10,6,0,8,1,,0.01,0,Fog,176
2012-10-4,79,66,52,64,58,53,100,91,52,30.35,30.28,30.24,10,5,0,7,0,,0.00,0,Fog,245
2012-10-5,79,66,52,63,56,53,100,91,45,30.27,30.21,30.08,10,4,0,9,0,,0.00,0,Fog,218
2012-10-6,62,54,47,61,52,44,100,94,77,30.18,30.11,30.05,10,7,0,15,6,20,0.41,7,Fog-Rain-Thunderstorm,360
2012-10-7,59,52,44,46,42,38,93,80,47,30.27,30.19,30.13,10,10,10,12,7,16,0.00,4,,1
2012-10-8,57,50,43,49,44,43,100,88,63,30.27,30.21,30.12,10,7,1,9,5,,0.19,6,Rain,15
2012-10-9,64,49,34,51,43,35,100,89,50,30.22,30.16,30.10,10,6,0,5,0,,0.00,1,Fog,-1
2012-10-10,71,59,46,57,53,47,100,84,60,30.28,30.21,30.14,10,8,1,9,2,,0.00,4,,326
2012-10-11,68,54,41,61,51,42,100,83,58,30.35,30.30,30.25,10,10,8,6,0,,0.00,5,,170
2012-10-12,75,67,59,66,62,58,100,85,65,30.37,30.31,30.26,10,9,2,6,0,,0.00,6,,128
2012-10-13,79,70,61,65,64,62,100,83,58,30.34,30.26,30.19,10,8,2,12,4,18,0.00,2,,153
2012-10-14,75,69,63,70,65,61,100,89,66,30.22,30.10,29.99,10,8,2,18,11,25,0.01,6,Rain-Thunderstorm,191
2012-10-15,72,60,47,64,56,41,100,92,32,30.11,30.03,29.98,10,4,0,10,1,,0.00,1,Fog,337
2012-10-16,72,58,45,54,50,45,100,74,42,30.08,30.01,29.95,10,10,10,7,2,,0.00,0,,196
2012-10-17,73,62,52,54,50,46,96,65,37,29.96,29.87,29.74,10,10,7,17,8,25,0.00,1,Rain-Thunderstorm,169
2012-10-18,65,58,52,61,55,42,100,87,43,29.93,29.83,29.71,10,6,0,16,6,25,1.19,5,Fog-Rain-Thunderstorm,256
2012-10-19,65,55,45,45,40,37,93,64,34,29.94,29.88,29.83,10,9,6,15,3,22,0.00,1,,234
2012-10-20,66,52,38,48,44,39,100,80,45,30.07,30.01,29.95,10,10,8,8,1,,0.00,0,,286
2012-10-21,75,58,41,56,49,42,100,80,41,30.20,30.15,30.07,10,10,7,7,0,,0.00,0,Rain,150
2012-10-22,80,66,52,54,50,44,100,62,28,30.26,30.19,30.13,10,8,2,10,3,,0.00,0,Rain,194
2012-10-23,77,62,48,56,51,49,100,71,37,30.22,30.17,30.14,10,10,9,9,3,,0.00,0,,183
2012-10-24,79,62,45,56,51,45,100,77,43,30.23,30.18,30.12,10,10,8,5,0,,0.00,0,,150
2012-10-25,77,62,48,62,56,49,100,80,52,30.15,30.10,30.06,10,9,6,12,2,,0.00,1,,163
2012-10-26,75,60,45,62,54,42,100,83,60,30.13,30.08,30.02,10,8,1,14,3,22,0.00,3,,342
2012-10-27,48,44,41,43,42,38,100,86,69,30.11,30.07,30.03,10,9,3,14,10,21,0.02,8,Rain,358
2012-10-28,56,48,39,38,34,30,76,63,40,30.14,30.06,29.99,10,10,10,17,11,23,0.00,4,,348
2012-10-29,54,44,34,31,27,19,85,56,27,30.17,30.11,30.04,10,10,10,18,11,24,0.00,0,,338
2012-10-30,55,46,36,32,26,21,79,52,27,30.01,29.97,29.92,10,10,10,17,8,24,0.00,0,,310
2012-10-31,61,48,34,35,32,29,92,61,30,30.04,30.00,29.97,10,10,10,10,3,,0.00,0,,295